Flight Track Log - Related Links

Times and Time Zones

All times are in EST time to prevent confusion due to time zone crossing. See the XOJ552 flight status page for this flight to view local times or setup timezone preferences in your user account.

Time Position Orientation Groundspeed Altitude Reporting Facility
EST Latitude Longitude Course Direction KTS MPH feet Rate Location/Type
Thu 04:48:32 PM 42.3644 -87.7992 111° Southeast 248 285 5,300  Level Chicago Center
Thu 04:49:34 PM 42.2983 -87.7175 138° Southeast 293 337 10,400 3,677 Climbing Chicago Center
Thu 04:50:36 PM 42.2436 -87.6147 126° Southeast 329 379 12,900 3,097 Climbing Chicago Center
Thu 04:51:38 PM 42.2106 -87.4744 108° East 399 459 16,800 3,648 Climbing Chicago Center
Thu 04:52:41 PM 42.1878 -87.3217 101° East 413 475 20,500 3,408 Climbing Chicago Center
Thu 04:53:00 PM 41.9627 -87.0990 129° Southeast  Level FlightAware Approximate
Thu 04:53:43 PM 42.1639 -87.1608 101° East 432 497 23,900  Level Chicago Center
Thu 04:54:45 PM 42.1364 -86.9775 101° East 461 531 26,700 2,468 Climbing Chicago Center
Thu 04:55:47 PM 42.1008 -86.7683 103° East 499 574 29,000 1,984 Climbing Chicago Center
Thu 04:56:49 PM 42.0742 -86.5908 101° East 526 605 30,800 1,839 Climbing Chicago Center
Thu 04:57:51 PM 42.0431 -86.3936 102° East 536 617 32,800 1,742 Climbing Chicago Center
Thu 04:58:53 PM 42.0094 -86.1944 103° East 544 626 34,400 2,129 Climbing Chicago Center
Thu 04:59:55 PM 41.9708 -85.9531 102° East 549 632 37,200 1,984 Climbing Chicago Center
Thu 05:00:57 PM 41.9364 -85.7569 103° East 540 621 38,500 1,355 Climbing Chicago Center
Thu 05:01:59 PM 41.9039 -85.5533 102° East 551 634 40,000 1,200 Climbing Chicago Center
Thu 05:03:02 PM 41.8683 -85.3514 103° East 548 631 41,000 480 Climbing Chicago Center
Thu 05:04:04 PM 41.8325 -85.1461 103° East 555 639 41,000  Level Chicago Center
Thu 05:05:06 PM 41.7969 -84.9333 103° East 576 663 41,000  Level Chicago Center
Thu 05:06:08 PM 41.7608 -84.7219 103° East 581 669 41,000  Level Chicago Center
Thu 05:06:53 PM 41.7311 -84.5578 104° East 572 658 41,000  Level Cleveland Center
Thu 05:07:55 PM 41.6872 -84.3556 106° East 568 654 41,000 -48 Level Cleveland Center
Thu 05:08:57 PM 41.6406 -84.1525 107° East 565 650 40,900 -532 Descending Cleveland Center
Thu 05:09:59 PM 41.5967 -83.9506 106° East 570 656 39,900 -919 Descending Cleveland Center
Thu 05:11:01 PM 41.5439 -83.7133 106° East 564 649 39,000 -435 Descending Cleveland Center
Thu 05:12:03 PM 41.5000 -83.5197 107° East 553 636 39,000  Level Cleveland Center
Thu 05:13:05 PM 41.4536 -83.3236 107° East 558 642 39,000  Level Cleveland Center
Thu 05:14:07 PM 41.4025 -83.1028 107° East 560 644 39,000  Level Cleveland Center
Thu 05:15:09 PM 41.3561 -82.9031 107° East 562 647 39,000  Level Cleveland Center
Thu 05:16:11 PM 41.3094 -82.7022 107° East 564 649 39,000  Level Cleveland Center
Thu 05:17:13 PM 41.2608 -82.5033 108° East 563 648 39,000  Level Cleveland Center
Thu 05:18:16 PM 41.2147 -82.3042 107° East 563 648 39,000  Level Cleveland Center
Thu 05:19:18 PM 41.1683 -82.1089 107° East 566 651 39,000  Level Cleveland Center
Thu 05:20:20 PM 41.1106 -81.8728 108° East 566 651 39,000  Level Cleveland Center
Thu 05:21:22 PM 41.0625 -81.6742 108° East 571 657 39,000  Level Cleveland Center
Thu 05:22:24 PM 41.0133 -81.4786 108° East 564 649 39,000  Level Cleveland Center
Thu 05:23:26 PM 40.9633 -81.2828 109° East 561 646 39,000  Level Cleveland Center
Thu 05:24:28 PM 40.9139 -81.0872 108° East 560 644 39,000  Level Cleveland Center
Thu 05:25:30 PM 40.8628 -80.8914 109° East 558 642 39,000  Level Cleveland Center
Thu 05:26:32 PM 40.8056 -80.6656 108° East 555 639 39,000  Level Cleveland Center
Thu 05:27:34 PM 40.7553 -80.4725 109° East 553 636 39,000  Level Cleveland Center
Thu 05:28:36 PM 40.7086 -80.2914 109° East 557 641 39,000  Level Cleveland Center
Thu 05:29:39 PM 40.6475 -80.0633 109° East 554 638 39,000 -432 Level Cleveland Center
Thu 05:30:41 PM 40.6003 -79.8842 109° East 554 638 38,100 -1,258 Descending Cleveland Center
Thu 05:31:43 PM 40.5492 -79.6911 109° East 555 639 36,400 -1,790 Descending Cleveland Center
Thu 05:32:45 PM 40.4972 -79.4933 109° East 566 651 34,400 -1,984 Descending Cleveland Center
Thu 05:33:47 PM 40.4594 -79.2883 104° East 570 656 32,300 -1,645 Descending Cleveland Center
Thu 05:34:49 PM 40.4447 -79.0369 94° East 581 669 31,000 -629 Descending Cleveland Center
Thu 05:35:51 PM 40.4314 -78.8253 95° East 587 676 31,000  Level Cleveland Center
Thu 05:36:53 PM 40.4175 -78.6100 95° East 595 685 31,000 -339 Level Cleveland Center
Thu 05:37:55 PM 40.4025 -78.3969 95° East 594 684 30,300 -2,177 Descending Cleveland Center
Thu 05:38:57 PM 40.3867 -78.1444 95° East 588 677 26,500 -2,565 Descending Cleveland Center
Thu 05:39:59 PM 40.3700 -77.9492 96° East 551 634 25,000 -968 Descending Cleveland Center
Thu 05:41:01 PM 40.3564 -77.7569 95° East 535 616 24,500 -960 Descending Cleveland Center
Thu 05:42:04 PM 40.3414 -77.5672 96° East 528 608 23,000 -912 Descending Cleveland Center
Thu 05:43:06 PM 40.3267 -77.3817 96° East 516 594 22,600 -968 Descending Cleveland Center
Thu 05:44:08 PM 40.3075 -77.1592 96° East 520 598 21,000 -1,488 Descending New York Center
Thu 05:45:07 PM 40.2797 -76.9772 101° East 520 598 19,600 -1,500 Descending New York Center
Thu 05:46:08 PM 40.2403 -76.8103 107° East 500 575 18,000 -1,350 Descending New York Center
Thu 05:47:07 PM 40.2044 -76.6522 106° East 467 537 16,900 -1,300 Descending New York Center
Thu 05:48:08 PM 40.1717 -76.5136 107° East 445 512 15,400 -1,438 Descending New York Center
Thu 05:49:08 PM 40.1372 -76.3669 107° East 431 496 14,000 -1,550 Descending New York Center
Thu 05:50:08 PM 40.1153 -76.2103 100° East 411 473 12,300 -1,450 Descending New York Center
Thu 05:51:08 PM 40.1064 -76.0819 95° East 374 430 11,100 -1,059 Descending New York Center
Thu 05:52:07 PM 40.1008 -75.9758 94° East 337 388 10,200 -1,059 Descending New York Center
Thu 05:53:07 PM 40.0875 -75.8528 98° East 315 362 9,000 -1,150 Descending New York Center
Thu 05:54:07 PM 40.0814 -75.7519 94° East 310 357 7,900 -1,190 Descending New York Center
Thu 05:55:08 PM 40.0800 -75.6325 91° East 300 345 6,600 -1,190 Descending New York Center
Thu 05:56:08 PM 40.0819 -75.5322 89° East 295 339 5,500 -1,100 Descending New York Center
Thu 05:57:08 PM 40.1108 -75.4364 68° East 272 313 4,400 -1,059 Descending New York Center
Thu 05:58:07 PM 40.1331 -75.3483 72° East 261 300 3,400 -750 Descending New York Center
Thu 05:59:08 PM 40.1322 -75.2614 91° East 251 289 2,900 -496 Descending New York Center
Thu 06:00:08 PM 40.1206 -75.1872 102° East 216 249 2,400 -450 Descending New York Center
Thu 06:01:08 PM 40.1086 -75.1133 102° East 211 243 2,000 -200 Descending New York Center
Thu 06:02:08 PM 40.1314 -75.0603 61° Northeast 167 192 2,000 -250 Level New York Center
Thu 06:03:08 PM 40.1333 -75.0089 87° East 145 167 1,500 -550 Descending New York Center
Thu 06:04:08 PM 40.1139 -74.9669 121° Southeast 132 152 900 -600 Descending New York Center
Thu 06:06:00 PM 40.0819 -75.0106 217° Southwest  Level Estimated

Login

Don't have an account? Register now (free) for customized features, flight alerts, and more!